DEKKL EDDL-EDLW
Flight info
| Callsign | DEKKL |
|---|---|
| Flight time | 0h 22m |
| Altitude | 7000 |
| Route | BAM |
| Aircraft | DA40/L-SBDGRY/S |
Departure
| Time | 2026-04-30 20:50 |
|---|---|
| Airport | Düsseldorf Airport (EDDL) |
Arrival
| Time | 2026-04-30 21:12 |
|---|---|
| Airport | Dortmund Airport (EDLW) |
| Time | Latitude | Longitude | Altitude | Speed | Heading |
|---|---|---|---|---|---|
| 2026-04-30 20:30 | 51.27601 | 6.75225 | 114 ft | 0 kts | 76° |
| 2026-04-30 20:33 | 51.27601 | 6.75224 | 114 ft | 0 kts | 76° |
| 2026-04-30 20:41 | 51.27601 | 6.75223 | 114 ft | 0 kts | 76° |
| 2026-04-30 20:44 | 51.27618 | 6.75238 | 114 ft | 5 kts | 315° |
| 2026-04-30 20:45 | 51.27683 | 6.75189 | 114 ft | 8 kts | 11° |
| 2026-04-30 20:45 | 51.27731 | 6.75209 | 115 ft | 9 kts | 28° |
| 2026-04-30 20:45 | 51.27766 | 6.75260 | 117 ft | 6 kts | 58° |
| 2026-04-30 20:46 | 51.27834 | 6.75351 | 119 ft | 0 kts | 337° |
| 2026-04-30 20:47 | 51.27866 | 6.75324 | 117 ft | 5 kts | 332° |
| 2026-04-30 20:47 | 51.27898 | 6.75300 | 118 ft | 7 kts | 332° |
| 2026-04-30 20:48 | 51.28044 | 6.75375 | 119 ft | 0 kts | 52° |
| 2026-04-30 20:49 | 51.28138 | 6.75570 | 121 ft | 47 kts | 52° |
| 2026-04-30 20:49 | 51.28404 | 6.76107 | 223 ft | 66 kts | 52° |
| 2026-04-30 20:49 | 51.28694 | 6.76717 | 371 ft | 75 kts | 72° |
| 2026-04-30 20:50 | 51.28386 | 6.78320 | 765 ft | 77 kts | 109° |
| 2026-04-30 20:50 | 51.28182 | 6.79086 | 1048 ft | 74 kts | 114° |
| 2026-04-30 20:50 | 51.27976 | 6.79794 | 1336 ft | 69 kts | 114° |
| 2026-04-30 20:50 | 51.27706 | 6.80442 | 1528 ft | 75 kts | 124° |
| 2026-04-30 20:51 | 51.27358 | 6.81161 | 1603 ft | 85 kts | 127° |
| 2026-04-30 20:51 | 51.26615 | 6.82609 | 1893 ft | 85 kts | 130° |
| 2026-04-30 20:51 | 51.26229 | 6.83309 | 2015 ft | 84 kts | 130° |
| 2026-04-30 20:52 | 51.25854 | 6.83994 | 2194 ft | 82 kts | 137° |
| 2026-04-30 20:52 | 51.25409 | 6.84569 | 2349 ft | 84 kts | 137° |
| 2026-04-30 20:52 | 51.25205 | 6.86301 | 2626 ft | 100 kts | 78° |
| 2026-04-30 20:53 | 51.25521 | 6.87279 | 2874 ft | 97 kts | 73° |
| 2026-04-30 20:53 | 51.25894 | 6.88234 | 3000 ft | 103 kts | 67° |
| 2026-04-30 20:53 | 51.26323 | 6.89080 | 3293 ft | 83 kts | 65° |
| 2026-04-30 20:54 | 51.26787 | 6.90621 | 3411 ft | 78 kts | 103° |
| 2026-04-30 20:54 | 51.26784 | 6.91533 | 3459 ft | 86 kts | 98° |
| 2026-04-30 20:54 | 51.26836 | 6.92496 | 3480 ft | 87 kts | 93° |
| 2026-04-30 20:55 | 51.27064 | 6.94552 | 3477 ft | 99 kts | 90° |
| 2026-04-30 20:55 | 51.27204 | 6.95659 | 3448 ft | 104 kts | 89° |
| 2026-04-30 20:55 | 51.27398 | 6.96799 | 3471 ft | 108 kts | 83° |
| 2026-04-30 20:56 | 51.28068 | 6.99181 | 3481 ft | 122 kts | 73° |
| 2026-04-30 20:56 | 51.28461 | 7.00353 | 3625 ft | 117 kts | 72° |
| 2026-04-30 20:56 | 51.29134 | 7.02718 | 3787 ft | 116 kts | 79° |
| 2026-04-30 20:57 | 51.29454 | 7.03904 | 3861 ft | 117 kts | 75° |
| 2026-04-30 20:57 | 51.29819 | 7.05070 | 3941 ft | 116 kts | 74° |
| 2026-04-30 20:57 | 51.30131 | 7.06232 | 4007 ft | 115 kts | 78° |
| 2026-04-30 20:58 | 51.30859 | 7.08576 | 4163 ft | 118 kts | 67° |
| 2026-04-30 20:58 | 51.31234 | 7.09751 | 4167 ft | 120 kts | 76° |
| 2026-04-30 20:58 | 51.31565 | 7.11018 | 4099 ft | 125 kts | 76° |
| 2026-04-30 20:58 | 51.31884 | 7.12279 | 4124 ft | 122 kts | 77° |
| 2026-04-30 20:59 | 51.32411 | 7.14833 | 4097 ft | 119 kts | 80° |
| 2026-04-30 20:59 | 51.32589 | 7.15679 | 4058 ft | 123 kts | 79° |
| 2026-04-30 21:00 | 51.33044 | 7.18681 | 3985 ft | 120 kts | 84° |
| 2026-04-30 21:00 | 51.33461 | 7.20791 | 3972 ft | 119 kts | 83° |
| 2026-04-30 21:01 | 51.34077 | 7.23271 | 3929 ft | 130 kts | 67° |
| 2026-04-30 21:01 | 51.34468 | 7.24536 | 3878 ft | 125 kts | 80° |
| 2026-04-30 21:01 | 51.34974 | 7.27163 | 3638 ft | 120 kts | 82° |
| 2026-04-30 21:02 | 51.35228 | 7.28406 | 3558 ft | 117 kts | 82° |
| 2026-04-30 21:02 | 51.35494 | 7.29658 | 3434 ft | 119 kts | 82° |
| 2026-04-30 21:02 | 51.35741 | 7.30961 | 3205 ft | 125 kts | 82° |
| 2026-04-30 21:02 | 51.35998 | 7.32282 | 3043 ft | 124 kts | 82° |
| 2026-04-30 21:03 | 51.36252 | 7.33574 | 2919 ft | 118 kts | 84° |
| 2026-04-30 21:03 | 51.36461 | 7.34857 | 2731 ft | 120 kts | 87° |
| 2026-04-30 21:03 | 51.36538 | 7.36123 | 2585 ft | 113 kts | 94° |
| 2026-04-30 21:03 | 51.36590 | 7.37388 | 2429 ft | 110 kts | 96° |
| 2026-04-30 21:04 | 51.36689 | 7.38584 | 2295 ft | 110 kts | 89° |
| 2026-04-30 21:04 | 51.36875 | 7.39793 | 2168 ft | 111 kts | 84° |
| 2026-04-30 21:04 | 51.37394 | 7.42078 | 1899 ft | 107 kts | 77° |
| 2026-04-30 21:05 | 51.37698 | 7.43168 | 1802 ft | 110 kts | 75° |
| 2026-04-30 21:05 | 51.37985 | 7.44271 | 1744 ft | 109 kts | 79° |
| 2026-04-30 21:05 | 51.38338 | 7.45397 | 1632 ft | 120 kts | 66° |
| 2026-04-30 21:05 | 51.38783 | 7.46454 | 1745 ft | 110 kts | 65° |
| 2026-04-30 21:06 | 51.39206 | 7.47477 | 1755 ft | 112 kts | 68° |
| 2026-04-30 21:06 | 51.39637 | 7.48503 | 1845 ft | 109 kts | 65° |
| 2026-04-30 21:06 | 51.40086 | 7.49472 | 1910 ft | 109 kts | 65° |
| 2026-04-30 21:06 | 51.40544 | 7.50442 | 1904 ft | 108 kts | 63° |
| 2026-04-30 21:07 | 51.40996 | 7.51418 | 1921 ft | 110 kts | 64° |
| 2026-04-30 21:07 | 51.41450 | 7.52386 | 1967 ft | 108 kts | 63° |
| 2026-04-30 21:07 | 51.41920 | 7.53340 | 1949 ft | 110 kts | 63° |
| 2026-04-30 21:07 | 51.42369 | 7.54330 | 1949 ft | 110 kts | 66° |
| 2026-04-30 21:08 | 51.42856 | 7.55309 | 1968 ft | 113 kts | 62° |
| 2026-04-30 21:08 | 51.43382 | 7.56263 | 1894 ft | 120 kts | 60° |
| 2026-04-30 21:08 | 51.43908 | 7.57317 | 1841 ft | 120 kts | 61° |
| 2026-04-30 21:08 | 51.44644 | 7.58012 | 1905 ft | 132 kts | 22° |
| 2026-04-30 21:09 | 51.45597 | 7.57892 | 1826 ft | 145 kts | 352° |
| 2026-04-30 21:09 | 51.46512 | 7.57231 | 1746 ft | 142 kts | 332° |
| 2026-04-30 21:09 | 51.47302 | 7.56357 | 1566 ft | 135 kts | 332° |
| 2026-04-30 21:09 | 51.48061 | 7.55582 | 1367 ft | 120 kts | 334° |
| 2026-04-30 21:10 | 51.48751 | 7.54950 | 1290 ft | 110 kts | 338° |
| 2026-04-30 21:10 | 51.49449 | 7.54496 | 1231 ft | 107 kts | 357° |
| 2026-04-30 21:10 | 51.50082 | 7.54839 | 1203 ft | 89 kts | 58° |
| 2026-04-30 21:10 | 51.50211 | 7.55786 | 1052 ft | 85 kts | 85° |
| 2026-04-30 21:11 | 51.50313 | 7.56718 | 936 ft | 85 kts | 79° |
| 2026-04-30 21:11 | 51.50551 | 7.57556 | 878 ft | 81 kts | 57° |
| 2026-04-30 21:11 | 51.50865 | 7.58304 | 715 ft | 83 kts | 60° |
| 2026-04-30 21:11 | 51.51108 | 7.59117 | 632 ft | 84 kts | 65° |
| 2026-04-30 21:12 | 51.51381 | 7.59910 | 535 ft | 79 kts | 63° |
| 2026-04-30 21:12 | 51.51644 | 7.60673 | 438 ft | 76 kts | 62° |
| 2026-04-30 21:12 | 51.51889 | 7.61377 | 414 ft | 65 kts | 65° |
| 2026-04-30 21:12 | 51.52060 | 7.61873 | 410 ft | 41 kts | 58° |
| 2026-04-30 21:13 | 51.52198 | 7.62276 | 412 ft | 30 kts | 70° |
| 2026-04-30 21:13 | 51.52150 | 7.62353 | 412 ft | 5 kts | 176° |
| 2026-04-30 21:13 | 51.52113 | 7.62390 | 411 ft | 3 kts | 148° |
| 2026-04-30 21:13 | 51.52106 | 7.62396 | 410 ft | 3 kts | 148° |
| 2026-04-30 21:14 | 51.52063 | 7.62403 | 409 ft | 8 kts | 211° |
| 2026-04-30 21:14 | 51.52002 | 7.62265 | 410 ft | 22 kts | 235° |
| 2026-04-30 21:14 | 51.51936 | 7.62073 | 411 ft | 22 kts | 232° |
| 2026-04-30 21:14 | 51.51848 | 7.61817 | 414 ft | 31 kts | 242° |
| 2026-04-30 21:15 | 51.51744 | 7.61530 | 423 ft | 30 kts | 245° |
| 2026-04-30 21:15 | 51.51634 | 7.61206 | 427 ft | 34 kts | 244° |
| 2026-04-30 21:15 | 51.51503 | 7.61019 | 425 ft | 17 kts | 216° |
| 2026-04-30 21:15 | 51.51442 | 7.60859 | 428 ft | 17 kts | 230° |
| 2026-04-30 21:16 | 51.51367 | 7.60660 | 433 ft | 26 kts | 242° |
| 2026-04-30 21:16 | 51.51275 | 7.60410 | 440 ft | 24 kts | 236° |
| 2026-04-30 21:16 | 51.51241 | 7.60306 | 438 ft | 5 kts | 231° |
| 2026-04-30 21:16 | 51.51202 | 7.60200 | 435 ft | 17 kts | 244° |
| 2026-04-30 21:17 | 51.51154 | 7.60057 | 439 ft | 5 kts | 206° |
| 2026-04-30 21:17 | 51.51128 | 7.60117 | 442 ft | 11 kts | 94° |
| 2026-04-30 21:17 | 51.51151 | 7.60222 | 432 ft | 14 kts | 56° |
| 2026-04-30 21:17 | 51.51206 | 7.60392 | 442 ft | 17 kts | 71° |
| 2026-04-30 21:18 | 51.51227 | 7.60497 | 438 ft | 0 kts | 76° |